Terminal Aerodrome Forecast
Issued by NWS Charleston, WV

Current Version | Previous Version | Text Only | Print | Product List | Glossary Off
Versions: 1 2 3 4 5 6 7 8 9 10 11 12 13 14 15 16 17 18 19 20 21 22 23

533
FTUS41 KRLX 090902 AAA
TAFBKW
TAF AMD
KBKW 090902Z 0909/1006 31009G15KT P6SM -SHSN OVC020
      TEMPO 0909/0911 3SM -SHSN
     FM091500 30009G15KT P6SM BKN025=

USA.gov is the U.S. government's official web portal to all federal, state and local government web resources and services.